Union, Ohio
Current Conditions -  °F | °C
As of 9:56 PM on Monday 20 Oct 2014 (Local Time) from KDAY Reporting Station
Broken Clouds Broken Clouds  
Wind Chill: 55°   Ceiling: 8500
Heat Index: 55°   Visibility: 10mi
Dew Point: 51°   Wind: 6mph
Humidity: 86%   Direction: 300°WNW
Pressure: 29.89"   Gusts: NA
Location:  39.8939°N, 84.3314°W
Report Text: KDAY 210156Z 30005KT 10SM FEW070 BKN085 13/11 A2989 RMK AO2 SLP122 T01280106
Loading
Personal Weather Stations






























Interactive Weather Map
Tropical Storm Tracking
New forecast layout! Learn more

10-Day Weather Forecast

Advertisements
Track Severe Weather on mobile